Time;durP1;ratioP1;P1;durP2;ratioP2;P2;SDS_P1;SDS_P2;PMS_P1;PMS_P2;Temp;Humidity;BMP_temperature;BMP_pressure;BME280_temperature;BME280_humidity;BME280_pressure;Samples;Min_cycle;Max_cycle;Signal;HPM_P1;HPM_P2
2022/07/13 00:00:54;;;;;;;4.20;1.40;;;;;;;16.42;59.87;100025.70;130325;1268;107294;-72
2022/07/13 00:04:00;;;;;;;4.50;1.20;;;;;;;16.37;61.57;100037.06;130384;1268;107216;-72
2022/07/13 00:07:05;;;;;;;2.50;1.30;;;;;;;16.32;60.40;100033.15;130421;1268;108744;-72
2022/07/13 00:10:11;;;;;;;2.10;1.20;;;;;;;16.31;60.44;100030.73;130370;1268;108719;-72
2022/07/13 00:13:17;;;;;;;3.90;1.60;;;;;;;16.30;60.86;100028.89;130365;1268;108923;-74
2022/07/13 00:16:22;;;;;;;3.70;1.50;;;;;;;16.27;61.43;100024.77;130325;1267;107555;-74
2022/07/13 00:19:28;;;;;;;2.10;1.30;;;;;;;16.25;61.45;100025.05;130362;1267;108893;-72
2022/07/13 00:22:34;;;;;;;2.30;1.20;;;;;;;16.22;62.00;100022.78;130335;1268;108653;-72
2022/07/13 00:25:40;;;;;;;2.60;1.20;;;;;;;16.19;61.76;100021.23;130395;1268;107216;-71
2022/07/13 00:28:45;;;;;;;4.00;1.40;;;;;;;16.17;62.44;100022.63;130328;1267;108833;-72
2022/07/13 00:31:51;;;;;;;2.20;1.20;;;;;;;16.14;62.57;100020.36;130396;1268;107251;-73
2022/07/13 00:34:56;;;;;;;1.70;1.20;;;;;;;16.13;62.41;100020.15;130161;1268;108832;-71
2022/07/13 00:38:01;;;;;;;1.50;1.30;;;;;;;16.09;63.44;100017.21;130346;1268;108932;-70
2022/07/13 00:41:08;;;;;;;2.30;1.40;;;;;;;16.02;64.00;100013.56;130403;1268;108893;-71
2022/07/13 00:44:13;;;;;;;2.50;1.30;;;;;;;15.97;63.68;100012.48;130352;1268;108228;-72
2022/07/13 00:47:20;;;;;;;1.50;1.10;;;;;;;15.90;63.81;100009.94;130191;1268;108751;-71
2022/07/13 00:50:26;;;;;;;1.90;1.30;;;;;;;15.86;65.12;100004.89;130407;1267;108722;-74
2022/07/13 00:53:33;;;;;;;2.30;1.20;;;;;;;15.81;65.52;100002.95;130416;1268;108690;-75
2022/07/13 00:56:38;;;;;;;4.30;1.70;;;;;;;15.79;64.64;100001.66;130429;1268;108762;-74
2022/07/13 00:59:44;;;;;;;2.70;1.70;;;;;;;15.78;65.36;100000.94;130392;1267;108700;-75
2022/07/13 01:02:49;;;;;;;2.30;1.50;;;;;;;15.74;66.20;100003.38;130318;1268;108762;-74
2022/07/13 01:05:55;;;;;;;3.60;1.60;;;;;;;15.68;66.68;100003.50;130496;1268;108842;-75
2022/07/13 01:09:02;;;;;;;2.60;1.50;;;;;;;15.65;66.64;99998.44;130244;1268;108704;-74
2022/07/13 01:12:08;;;;;;;3.20;1.70;;;;;;;15.62;67.73;100002.05;129863;1268;600098;-74
2022/07/13 01:15:13;;;;;;;4.00;1.40;;;;;;;15.56;66.65;100000.92;130364;1268;109209;-73
2022/07/13 01:18:19;;;;;;;4.70;1.60;;;;;;;15.55;67.25;99999.59;130285;1268;108934;-73
2022/07/13 01:21:25;;;;;;;2.50;1.60;;;;;;;15.54;67.43;99996.14;130246;1267;109590;-73
2022/07/13 01:24:33;;;;;;;2.70;1.50;;;;;;;15.52;68.41;99994.08;130352;1268;108965;-73
2022/07/13 01:27:40;;;;;;;2.90;1.70;;;;;;;15.45;69.37;99995.05;130322;1267;109002;-73
2022/07/13 01:30:47;;;;;;;2.50;1.40;;;;;;;15.42;68.44;99994.20;130383;1268;108696;-76
2022/07/13 01:33:52;;;;;;;2.40;1.80;;;;;;;15.41;68.75;99992.70;130373;1268;107664;-76
2022/07/13 01:36:58;;;;;;;2.60;1.50;;;;;;;15.40;68.83;99992.77;130336;1267;109716;-76
2022/07/13 01:40:04;;;;;;;2.10;1.60;;;;;;;15.38;68.54;99994.03;130245;1268;108582;-75
2022/07/13 01:43:12;;;;;;;2.00;1.70;;;;;;;15.32;69.81;99992.23;130357;1268;108757;-75
2022/07/13 01:46:17;;;;;;;2.10;1.60;;;;;;;15.28;69.29;99982.84;130164;1268;109024;-76
2022/07/13 01:49:23;;;;;;;2.70;1.80;;;;;;;15.27;71.01;99987.96;130452;1268;108741;-74
2022/07/13 01:52:28;;;;;;;4.30;1.80;;;;;;;15.23;70.80;99983.45;130378;1268;108675;-76
2022/07/13 01:55:34;;;;;;;2.10;1.70;;;;;;;15.21;70.27;99983.00;130378;1268;108846;-76
2022/07/13 01:58:41;;;;;;;2.90;1.60;;;;;;;15.18;70.27;99982.98;130308;1268;108986;-74
2022/07/13 02:01:46;;;;;;;3.10;1.80;;;;;;;15.20;70.73;99984.69;130233;1268;107119;-71
2022/07/13 02:04:52;;;;;;;2.40;1.70;;;;;;;15.22;72.29;99991.34;130259;1268;108761;-71
2022/07/13 02:07:57;;;;;;;2.40;1.80;;;;;;;15.21;71.51;99985.86;130364;1267;108749;-71
2022/07/13 02:11:07;;;;;;;3.90;1.70;;;;;;;15.20;71.64;99984.87;130331;1268;108853;-71
2022/07/13 02:14:12;;;;;;;2.00;1.80;;;;;;;15.18;72.10;99986.08;130215;1268;108936;-72
2022/07/13 02:17:17;;;;;;;3.80;1.90;;;;;;;15.17;72.24;99987.23;130372;1268;108538;-71
2022/07/13 02:20:25;;;;;;;2.50;1.70;;;;;;;15.17;72.11;99985.05;130368;1268;108726;-71
2022/07/13 02:23:30;;;;;;;3.60;1.90;;;;;;;15.18;71.23;99979.55;130403;1268;107044;-75
2022/07/13 02:26:36;;;;;;;4.00;1.70;;;;;;;15.18;72.07;99977.23;130250;1268;108879;-72
2022/07/13 02:29:41;;;;;;;2.90;1.60;;;;;;;15.19;71.40;99976.63;130224;1268;108640;-72
2022/07/13 02:32:47;;;;;;;1.70;1.30;;;;;;;15.19;71.61;99980.67;130420;1268;107747;-72
2022/07/13 02:35:53;;;;;;;2.60;1.80;;;;;;;15.21;71.34;99976.77;130254;1268;108714;-72
2022/07/13 02:38:59;;;;;;;3.00;1.80;;;;;;;15.20;71.68;99978.04;130345;1268;108966;-72
2022/07/13 02:42:05;;;;;;;3.10;1.60;;;;;;;15.20;71.63;99975.97;130345;1267;109184;-76
2022/07/13 02:45:11;;;;;;;3.00;1.70;;;;;;;15.18;72.37;99979.21;130367;1268;108749;-73
2022/07/13 02:48:16;;;;;;;2.90;1.50;;;;;;;15.14;72.04;99976.48;130293;1268;108754;-78
2022/07/13 02:51:22;;;;;;;2.60;1.50;;;;;;;15.12;72.46;99972.66;130316;1268;108686;-72
2022/07/13 02:54:27;;;;;;;2.30;1.70;;;;;;;15.13;72.66;99977.01;130247;1268;108913;-72
2022/07/13 02:57:32;;;;;;;1.90;1.70;;;;;;;15.14;72.28;99975.31;130312;1268;108225;-73
2022/07/13 03:00:39;;;;;;;1.90;1.50;;;;;;;15.14;73.31;99973.84;130457;1268;108819;-72
2022/07/13 03:03:44;;;;;;;1.90;1.50;;;;;;;15.12;73.83;99974.56;130298;1268;108770;-77
2022/07/13 03:06:50;;;;;;;2.80;1.60;;;;;;;15.07;72.48;99977.06;130434;1268;108929;-74
2022/07/13 03:09:55;;;;;;;2.50;1.80;;;;;;;15.07;74.04;99972.40;130341;1267;108947;-74
2022/07/13 03:13:01;;;;;;;3.30;1.70;;;;;;;15.06;74.04;99973.59;130307;1268;108969;-74
2022/07/13 03:16:07;;;;;;;2.20;1.70;;;;;;;15.06;73.51;99968.38;130235;1268;108656;-74
2022/07/13 03:19:14;;;;;;;5.10;2.00;;;;;;;15.05;74.44;99972.41;130357;1268;108936;-75
2022/07/13 03:22:20;;;;;;;1.60;1.40;;;;;;;15.04;73.75;99970.54;130274;1268;108713;-75
2022/07/13 03:25:26;;;;;;;3.30;1.60;;;;;;;15.06;74.21;99969.29;130415;1268;108852;-75
2022/07/13 03:28:33;;;;;;;3.90;1.70;;;;;;;15.10;74.05;99976.31;130382;1268;107727;-75
2022/07/13 03:31:40;;;;;;;3.00;2.10;;;;;;;15.13;74.52;99975.56;130345;1268;108761;-75
2022/07/13 03:34:45;;;;;;;3.00;2.10;;;;;;;15.11;75.34;99977.94;130375;1268;108874;-75
2022/07/13 03:37:52;;;;;;;2.40;1.80;;;;;;;15.10;74.76;99974.33;130210;1268;108882;-75
2022/07/13 03:40:59;;;;;;;1.90;1.70;;;;;;;15.14;75.65;99971.35;130342;1268;108939;-75
2022/07/13 03:44:06;;;;;;;2.30;1.60;;;;;;;15.29;74.89;99972.88;130285;1268;108774;-75
2022/07/13 03:47:12;;;;;;;2.00;1.30;;;;;;;15.51;74.45;99972.68;130394;1268;108750;-75
2022/07/13 03:50:18;;;;;;;1.80;1.50;;;;;;;15.68;75.21;99973.55;130190;1268;108991;-75
2022/07/13 03:53:24;;;;;;;2.10;1.30;;;;;;;15.76;74.51;99971.00;130326;1268;109004;-75
2022/07/13 03:56:29;;;;;;;3.60;1.80;;;;;;;15.89;74.69;99968.78;130286;1268;107375;-75
2022/07/13 03:59:35;;;;;;;2.00;1.60;;;;;;;16.06;74.56;99968.00;130330;1268;108826;-75
2022/07/13 04:02:41;;;;;;;2.20;1.70;;;;;;;16.30;74.20;99970.02;130251;1268;108799;-75
2022/07/13 04:05:47;;;;;;;1.80;1.50;;;;;;;16.58;73.79;99969.48;130253;1268;108708;-76
2022/07/13 04:08:52;;;;;;;2.30;1.60;;;;;;;16.80;73.52;99968.81;130222;1268;108754;-75
2022/07/13 04:11:58;;;;;;;1.90;1.30;;;;;;;17.00;73.24;99967.80;130238;1268;108573;-75
2022/07/13 04:15:03;;;;;;;2.10;1.40;;;;;;;17.21;72.79;99966.77;130349;1268;109021;-75
2022/07/13 04:18:10;;;;;;;3.30;1.80;;;;;;;17.42;72.66;99966.78;130385;1268;108759;-75
2022/07/13 04:21:16;;;;;;;2.40;1.50;;;;;;;17.58;72.41;99968.55;130340;1268;108722;-76
2022/07/13 04:24:23;;;;;;;2.10;1.60;;;;;;;17.74;72.23;99971.51;130327;1268;109278;-75
2022/07/13 04:27:30;;;;;;;3.60;1.80;;;;;;;17.80;71.96;99970.84;130414;1268;108930;-75
2022/07/13 04:30:36;;;;;;;2.50;1.30;;;;;;;17.81;71.89;99968.31;130241;1268;108774;-75
2022/07/13 04:33:43;;;;;;;2.00;1.80;;;;;;;17.91;71.86;99968.62;130290;1268;108704;-75
2022/07/13 04:36:49;;;;;;;3.90;2.20;;;;;;;18.04;71.53;99969.59;130364;1267;107805;-76
2022/07/13 04:39:55;;;;;;;3.70;1.80;;;;;;;18.05;71.49;99974.81;130320;1268;109089;-75
2022/07/13 04:43:01;;;;;;;2.20;1.70;;;;;;;18.08;71.60;99974.10;130335;1268;108864;-75
2022/07/13 04:46:07;;;;;;;2.40;1.70;;;;;;;18.20;71.48;99978.12;130184;1268;108772;-75
2022/07/13 04:49:12;;;;;;;1.90;1.50;;;;;;;18.34;71.50;99977.14;130298;1267;108799;-75
2022/07/13 04:52:18;;;;;;;2.50;1.50;;;;;;;18.53;71.09;99975.69;130227;1268;108913;-75
2022/07/13 04:55:23;;;;;;;2.60;1.70;;;;;;;18.58;70.57;99976.25;130361;1268;109078;-76
2022/07/13 04:58:29;;;;;;;3.80;1.70;;;;;;;18.63;70.63;99980.11;130288;1268;108795;-75
2022/07/13 05:01:35;;;;;;;2.60;1.50;;;;;;;18.67;70.87;99976.59;130365;1267;108699;-76
2022/07/13 05:04:41;;;;;;;2.60;1.60;;;;;;;18.82;70.77;99976.77;130301;1268;108923;-76
2022/07/13 05:07:47;;;;;;;3.00;1.50;;;;;;;18.92;70.15;99972.45;130165;1268;108748;-75
2022/07/13 05:10:53;;;;;;;2.30;1.60;;;;;;;18.97;69.96;99970.73;130458;1268;108651;-76
2022/07/13 05:13:59;;;;;;;2.40;1.80;;;;;;;19.03;69.83;99969.49;130441;1268;108886;-75
2022/07/13 05:17:05;;;;;;;3.20;1.70;;;;;;;18.91;69.77;99967.25;130396;1268;109778;-76
2022/07/13 05:20:13;;;;;;;2.70;1.90;;;;;;;18.62;70.23;99972.61;130485;1267;108806;-76
2022/07/13 05:23:23;;;;;;;1.90;1.40;;;;;;;18.46;70.82;99970.23;130338;1267;108858;-75
2022/07/13 05:26:29;;;;;;;2.20;1.50;;;;;;;18.56;71.17;99971.05;130481;1268;107735;-77
2022/07/13 05:29:34;;;;;;;3.20;1.40;;;;;;;18.78;70.72;99973.54;130508;1268;107729;-75
2022/07/13 05:32:40;;;;;;;2.10;1.50;;;;;;;18.91;70.42;99970.64;130291;1268;108723;-75
2022/07/13 05:35:46;;;;;;;3.90;1.80;;;;;;;18.97;70.18;99974.60;130402;1268;108843;-73
2022/07/13 05:38:51;;;;;;;2.10;1.30;;;;;;;19.03;70.23;99976.02;130163;1268;108651;-73
2022/07/13 05:41:56;;;;;;;2.10;1.40;;;;;;;19.11;70.11;99973.62;130283;1268;108930;-73
2022/07/13 05:45:03;;;;;;;2.10;1.60;;;;;;;19.21;70.08;99975.89;130389;1268;109213;-74
2022/07/13 05:48:09;;;;;;;2.80;1.70;;;;;;;19.28;69.89;99974.86;130165;1267;109874;-72
2022/07/13 05:51:14;;;;;;;2.90;1.60;;;;;;;19.36;70.26;99976.92;130358;1268;108862;-75
2022/07/13 05:54:20;;;;;;;2.40;1.80;;;;;;;19.49;69.97;99980.95;130475;1268;107865;-73
2022/07/13 05:57:25;;;;;;;1.80;1.30;;;;;;;19.60;69.83;99989.10;130106;1268;107693;-73
2022/07/13 06:00:31;;;;;;;4.10;1.50;;;;;;;19.74;69.56;99992.89;130390;1268;108787;-73
2022/07/13 06:03:37;;;;;;;2.30;1.60;;;;;;;19.87;69.28;99994.30;130456;1268;108549;-74
2022/07/13 06:06:42;;;;;;;1.50;1.40;;;;;;;19.86;68.93;99995.10;130426;1268;108848;-73
2022/07/13 06:09:47;;;;;;;4.90;1.70;;;;;;;19.88;69.24;100000.25;130420;1268;108865;-73
2022/07/13 06:12:53;;;;;;;1.50;1.40;;;;;;;19.85;68.46;99997.11;130392;1268;108998;-73
2022/07/13 06:15:59;;;;;;;3.80;1.60;;;;;;;19.78;68.52;100001.52;130334;1268;108855;-74
2022/07/13 06:19:05;;;;;;;2.70;1.30;;;;;;;19.69;68.61;99999.17;130391;1268;108984;-73
2022/07/13 06:22:10;;;;;;;2.20;1.40;;;;;;;19.65;68.88;100003.46;130426;1268;108566;-73
2022/07/13 06:25:15;;;;;;;5.30;2.00;;;;;;;19.68;69.20;100005.87;130358;1268;109358;-73
2022/07/13 06:28:21;;;;;;;2.50;1.80;;;;;;;19.71;69.17;100010.73;130447;1267;109016;-81
2022/07/13 06:31:26;;;;;;;3.10;1.90;;;;;;;19.79;69.25;100004.27;130474;1268;108757;-78
2022/07/13 06:34:32;;;;;;;3.10;2.30;;;;;;;19.81;68.64;100008.79;130257;1268;107495;-78
2022/07/13 06:37:37;;;;;;;5.40;3.40;;;;;;;19.77;68.63;100006.49;130383;1268;108644;-74
2022/07/13 06:40:42;;;;;;;2.80;1.50;;;;;;;19.77;68.98;100007.86;130363;1268;108833;-74
2022/07/13 06:43:48;;;;;;;1.80;1.40;;;;;;;19.90;69.24;100014.82;130334;1268;108847;-74
2022/07/13 06:46:54;;;;;;;2.20;1.60;;;;;;;20.03;68.92;100013.29;130345;1267;108746;-75
2022/07/13 06:49:59;;;;;;;3.90;1.70;;;;;;;20.12;68.63;100012.67;130442;1268;108883;-76
2022/07/13 06:53:04;;;;;;;3.20;1.30;;;;;;;20.20;68.77;100003.56;130371;1268;109001;-74
2022/07/13 06:56:10;;;;;;;2.50;1.60;;;;;;;20.28;68.09;100010.15;130391;1268;108840;-76
2022/07/13 06:59:15;;;;;;;3.00;1.90;;;;;;;20.25;67.68;100014.88;130465;1268;108679;-77
2022/07/13 07:02:21;;;;;;;2.10;1.50;;;;;;;20.28;68.39;100015.98;130463;1268;108882;-76
2022/07/13 07:05:26;;;;;;;1.90;1.40;;;;;;;20.36;67.71;100018.91;130238;1267;108752;-77
2022/07/13 07:08:31;;;;;;;2.10;1.50;;;;;;;20.48;67.83;100018.73;130403;1268;108821;-77
2022/07/13 07:11:37;;;;;;;3.40;1.90;;;;;;;20.58;66.96;100018.52;130310;1268;108899;-77
2022/07/13 07:14:42;;;;;;;3.20;1.70;;;;;;;20.62;67.17;100016.14;130315;1268;108863;-76
2022/07/13 07:17:49;;;;;;;4.20;1.50;;;;;;;20.69;67.54;100014.07;130199;1267;108891;-76
2022/07/13 07:20:54;;;;;;;6.10;1.90;;;;;;;20.80;67.74;100011.91;130391;1268;108696;-76
2022/07/13 07:23:59;;;;;;;3.00;1.80;;;;;;;20.89;66.79;100013.45;130268;1267;108841;-76
2022/07/13 07:27:09;;;;;;;3.10;1.80;;;;;;;20.93;67.14;100012.94;130379;1268;108037;-76
2022/07/13 07:30:14;;;;;;;3.70;1.60;;;;;;;21.02;67.35;100008.45;130374;1268;108689;-76
2022/07/13 07:33:20;;;;;;;2.30;1.70;;;;;;;21.10;67.15;100011.79;130299;1268;108785;-77
2022/07/13 07:36:25;;;;;;;1.80;1.50;;;;;;;21.21;67.10;100013.19;130212;1268;108824;-76
2022/07/13 07:39:30;;;;;;;3.10;1.50;;;;;;;21.32;66.69;100008.88;130437;1268;108781;-76
2022/07/13 07:42:36;;;;;;;2.80;1.90;;;;;;;21.37;66.46;100006.40;130449;1268;108849;-76
2022/07/13 07:45:41;;;;;;;2.80;1.60;;;;;;;21.42;66.11;100010.32;130360;1268;108238;-77
2022/07/13 07:48:46;;;;;;;2.70;1.60;;;;;;;21.45;65.99;100009.46;130365;1268;108745;-74
2022/07/13 07:51:51;;;;;;;2.20;1.50;;;;;;;21.47;66.31;100008.38;130318;1267;108820;-76
2022/07/13 07:54:57;;;;;;;2.80;1.60;;;;;;;21.57;65.95;100007.17;130310;1268;108740;-74
2022/07/13 07:58:02;;;;;;;4.80;1.30;;;;;;;21.64;66.45;100001.04;130340;1268;108666;-74
2022/07/13 08:01:08;;;;;;;2.70;1.70;;;;;;;21.72;66.06;100001.37;130339;1268;108489;-74
2022/07/13 08:04:13;;;;;;;1.90;1.50;;;;;;;21.81;65.89;99999.74;130404;1268;108662;-74
2022/07/13 08:07:18;;;;;;;3.20;1.50;;;;;;;21.89;65.71;99993.71;130380;1267;108523;-76
2022/07/13 08:10:24;;;;;;;1.90;1.40;;;;;;;21.97;64.89;100001.10;130382;1268;109017;-76
2022/07/13 08:13:30;;;;;;;2.20;1.40;;;;;;;22.01;64.91;100000.16;130335;1268;107459;-74
2022/07/13 08:16:35;;;;;;;2.60;1.50;;;;;;;22.09;64.33;100008.84;130365;1267;108942;-76
2022/07/13 08:19:40;;;;;;;1.60;1.40;;;;;;;22.13;64.23;100006.80;130354;1268;108718;-76
2022/07/13 08:22:45;;;;;;;2.30;1.50;;;;;;;22.26;65.35;100012.96;130343;1268;108813;-75
2022/07/13 08:25:51;;;;;;;2.30;1.60;;;;;;;22.39;64.13;100016.80;130347;1268;108744;-76
2022/07/13 08:28:58;;;;;;;1.90;1.30;;;;;;;22.45;62.49;100019.61;130354;1268;108870;-74
2022/07/13 08:32:03;;;;;;;1.50;1.30;;;;;;;22.47;62.91;100013.89;130383;1268;107472;-74
2022/07/13 08:38:36;;;;;;;2.70;1.30;;;;;;;22.52;58.53;100025.30;130350;1267;108758;-74
2022/07/13 08:41:41;;;;;;;2.30;1.40;;;;;;;22.50;58.83;100026.52;130350;1268;108836;-74
2022/07/13 08:44:47;;;;;;;1.30;1.00;;;;;;;22.54;58.89;100020.73;130375;1268;108790;-76
2022/07/13 08:47:56;;;;;;;1.30;1.20;;;;;;;22.62;59.29;100023.02;130442;1268;108917;-77
2022/07/13 09:08:03;;;;;;;4.80;1.20;;;;;;;23.54;57.40;100014.13;125855;1310;646988;-76
2022/07/13 09:11:09;;;;;;;2.70;1.30;;;;;;;23.70;56.44;100020.28;129270;1277;218477;-76
2022/07/13 09:14:26;;;;;;;1.50;1.30;;;;;;;23.64;55.10;100030.42;130115;1270;109211;-77
2022/07/13 09:17:37;;;;;;;1.90;1.20;;;;;;;23.61;53.96;100026.56;129988;1270;108056;-76
2022/07/13 09:20:48;;;;;;;;;;;;;;;23.67;55.46;100024.77;130200;1270;108784;-76
2022/07/13 09:23:58;;;;;;;2.40;1.30;;;;;;;23.78;56.19;100020.65;130206;1270;108726;-76
2022/07/13 09:27:04;;;;;;;2.20;0.90;;;;;;;23.89;52.96;100037.59;129960;1270;108619;-76
2022/07/13 09:30:23;;;;;;;1.10;0.80;;;;;;;23.89;53.18;100019.67;130091;1270;108252;-77
2022/07/13 09:33:36;;;;;;;1.40;1.00;;;;;;;23.97;53.25;100016.46;130009;1270;108350;-76
2022/07/13 09:36:42;;;;;;;1.70;0.90;;;;;;;24.02;51.86;100022.56;130133;1270;109826;-76
2022/07/13 09:40:08;;;;;;;1.50;0.90;;;;;;;24.03;51.87;100020.55;130135;1270;107705;-76
2022/07/13 09:46:37;;;;;;;2.10;1.00;;;;;;;24.18;51.57;100017.51;129977;1270;108786;-76
2022/07/13 09:49:45;;;;;;;1.50;1.00;;;;;;;24.29;51.69;100031.74;130000;1270;108863;-76
2022/07/13 09:52:52;;;;;;;4.50;1.20;;;;;;;24.34;50.68;100029.27;129991;1270;108693;-75
2022/07/13 09:55:59;;;;;;;1.30;1.00;;;;;;;24.39;51.04;100028.08;130212;1270;109507;-76
2022/07/13 09:59:05;;;;;;;2.20;1.20;;;;;;;24.41;48.97;100034.65;130209;1270;108886;-76
2022/07/13 10:02:12;;;;;;;1.60;1.00;;;;;;;24.41;48.89;100028.15;130195;1270;107666;-77
2022/07/13 10:05:19;;;;;;;2.10;1.00;;;;;;;24.47;50.27;100023.84;130236;1270;108957;-76
2022/07/13 10:08:25;;;;;;;3.10;1.00;;;;;;;24.54;49.91;100021.50;130000;1270;107153;-76
2022/07/13 10:11:31;;;;;;;1.50;1.00;;;;;;;24.65;49.71;100027.66;130158;1270;108870;-76
2022/07/13 10:14:38;;;;;;;4.10;1.20;;;;;;;24.74;48.87;100031.77;130042;1270;107365;-76
2022/07/13 10:17:50;;;;;;;1.60;1.00;;;;;;;24.66;48.54;100040.07;130179;1270;109007;-77
2022/07/13 10:21:02;;;;;;;2.60;1.20;;;;;;;24.80;49.37;100033.14;130047;1270;108877;-76
2022/07/13 10:24:16;;;;;;;3.70;1.10;;;;;;;25.03;48.57;100037.38;130235;1270;108661;-76
2022/07/13 10:27:26;;;;;;;2.00;1.20;;;;;;;25.18;49.35;100034.45;129993;1268;109788;-77
2022/07/13 10:30:32;;;;;;;3.10;1.20;;;;;;;25.36;49.42;100040.86;129957;1270;107546;-77
2022/07/13 10:33:43;;;;;;;5.60;2.10;;;;;;;25.41;48.48;100041.19;130051;1270;109999;-76
2022/07/13 10:36:57;;;;;;;2.70;1.10;;;;;;;25.38;48.27;100036.61;129977;1270;108518;-77
2022/07/13 10:40:14;;;;;;;2.10;1.20;;;;;;;25.34;48.18;100042.41;130002;1270;108666;-76
2022/07/13 10:43:20;;;;;;;3.50;1.20;;;;;;;25.33;47.87;100046.39;130060;1270;108713;-76
2022/07/13 10:46:49;;;;;;;2.40;1.30;;;;;;;25.27;48.09;100033.70;130009;1270;108674;-75
2022/07/13 10:49:54;;;;;;;3.90;1.10;;;;;;;25.21;48.00;100044.31;130071;1270;108814;-75
2022/07/13 10:53:00;;;;;;;3.40;1.50;;;;;;;25.32;48.54;100035.57;129978;1270;108734;-76
2022/07/13 10:56:16;;;;;;;4.60;1.40;;;;;;;25.42;48.58;100030.77;129994;1270;108969;-75
2022/07/13 10:59:47;;;;;;;3.70;1.20;;;;;;;25.42;48.31;100029.13;129951;1270;108871;-78
2022/07/13 11:02:55;;;;;;;2.90;1.30;;;;;;;25.49;49.10;100031.98;130158;1270;108846;-76
2022/07/13 11:06:12;;;;;;;2.80;1.30;;;;;;;25.53;48.21;100035.35;130203;1270;108106;-76
2022/07/13 11:09:20;;;;;;;1.50;1.10;;;;;;;25.56;48.87;100026.48;130189;1270;108787;-75
2022/07/13 11:12:25;;;;;;;3.00;1.50;;;;;;;25.61;49.13;100029.14;130191;1270;108754;-75
2022/07/13 11:15:48;;;;;;;2.00;1.30;;;;;;;25.54;46.82;100031.54;130073;1270;108845;-75
2022/07/13 11:18:55;;;;;;;2.90;1.20;;;;;;;25.51;47.67;100030.23;130210;1270;108907;-76
2022/07/13 11:22:10;;;;;;;2.80;1.40;;;;;;;25.55;47.57;100040.56;130270;1270;108747;-77
2022/07/13 11:25:39;;;;;;;1.80;1.30;;;;;;;25.61;46.64;100041.39;130180;1270;109032;-77
2022/07/13 11:28:51;;;;;;;3.00;1.30;;;;;;;25.75;47.54;100031.89;130137;1270;108918;-77
2022/07/13 11:32:01;;;;;;;2.70;1.10;;;;;;;25.91;46.46;100029.60;130187;1270;108869;-77
2022/07/13 11:35:07;;;;;;;2.50;1.60;;;;;;;26.00;46.88;100028.65;130154;1270;108513;-76
2022/07/13 11:38:15;;;;;;;3.10;1.10;;;;;;;26.01;45.60;100036.59;130167;1270;107545;-77
2022/07/13 11:41:23;;;;;;;3.20;1.40;;;;;;;26.14;46.78;100023.95;130179;1270;108955;-77
2022/07/13 11:44:30;;;;;;;3.00;1.30;;;;;;;26.38;45.76;100042.29;130179;1270;109062;-77
2022/07/13 11:47:35;;;;;;;2.00;1.30;;;;;;;26.28;43.72;100033.24;130186;1270;108508;-78
2022/07/13 11:50:49;;;;;;;2.90;1.20;;;;;;;26.20;44.27;100032.75;130174;1270;108736;-77
2022/07/13 11:53:54;;;;;;;2.90;1.20;;;;;;;26.08;45.56;100030.19;130201;1270;108731;-79
2022/07/13 11:57:00;;;;;;;2.40;1.00;;;;;;;26.20;44.35;100021.70;130186;1270;108938;-77
2022/07/13 12:00:08;;;;;;;1.80;1.10;;;;;;;26.36;44.81;100024.98;130147;1270;108790;-78
2022/07/13 12:03:27;;;;;;;2.90;1.10;;;;;;;26.49;45.06;100023.48;130199;1270;107127;-78
2022/07/13 12:06:32;;;;;;;1.90;1.00;;;;;;;26.59;44.31;100031.48;130058;1270;108722;-78
2022/07/13 12:09:37;;;;;;;1.50;0.80;;;;;;;26.67;43.29;100031.98;130157;1270;108832;-78
2022/07/13 12:12:43;;;;;;;0.90;0.80;;;;;;;26.78;44.11;100030.83;130158;1270;109015;-78
2022/07/13 12:15:48;;;;;;;3.30;0.90;;;;;;;26.93;44.60;100027.98;130087;1270;108725;-77
2022/07/13 12:19:04;;;;;;;1.80;0.90;;;;;;;26.85;43.84;100033.88;130169;1270;108695;-77
2022/07/13 12:22:10;;;;;;;2.40;1.10;;;;;;;26.73;44.46;100036.06;130153;1270;108693;-77
2022/07/13 12:25:26;;;;;;;2.60;1.10;;;;;;;26.63;42.80;100045.84;130079;1270;108525;-77
2022/07/13 12:28:32;;;;;;;1.40;1.00;;;;;;;26.45;43.38;100051.95;130330;1270;108629;-77
2022/07/13 12:31:38;;;;;;;0.90;0.80;;;;;;;26.31;42.58;100045.52;130128;1270;108843;-78
2022/07/13 12:34:52;;;;;;;1.90;0.90;;;;;;;26.23;43.10;100035.45;130194;1270;108619;-77
2022/07/13 12:37:59;;;;;;;1.80;1.10;;;;;;;26.24;43.48;100037.59;130161;1270;108859;-77
2022/07/13 12:41:04;;;;;;;1.60;1.10;;;;;;;26.38;43.65;100039.32;130153;1270;108996;-77
2022/07/13 12:44:12;;;;;;;1.40;1.10;;;;;;;26.49;43.10;100037.85;130148;1270;108886;-77
2022/07/13 12:47:24;;;;;;;2.20;1.20;;;;;;;26.52;43.39;100034.59;130176;1270;108745;-77
2022/07/13 12:50:30;;;;;;;2.40;1.40;;;;;;;26.51;43.02;100043.63;130160;1270;108573;-77
2022/07/13 12:53:49;;;;;;;2.90;1.30;;;;;;;26.38;42.78;100043.75;130170;1270;107055;-77
2022/07/13 12:56:55;;;;;;;2.70;1.30;;;;;;;26.18;42.88;100037.55;130026;1270;108667;-77
2022/07/13 13:00:06;;;;;;;3.10;1.30;;;;;;;26.01;43.02;100044.02;130055;1271;108923;-77
2022/07/13 13:03:10;;;;;;;;;;;;;;;25.77;42.91;100044.33;130159;1270;109687;-77
2022/07/13 13:06:15;;;;;;;2.10;1.40;;;;;;;25.63;43.32;100048.95;130160;1270;107788;-77
2022/07/13 13:09:22;;;;;;;2.10;1.30;;;;;;;25.67;43.77;100042.86;130163;1270;108527;-77
2022/07/13 13:12:28;;;;;;;2.40;1.50;;;;;;;25.80;44.03;100039.11;130268;1270;108655;-77
2022/07/13 13:15:34;;;;;;;1.80;1.40;;;;;;;25.91;43.49;100036.31;130231;1270;108737;-77
2022/07/13 13:18:39;;;;;;;1.50;1.30;;;;;;;26.02;44.13;100029.21;130176;1270;107679;-77
2022/07/13 13:21:44;;;;;;;3.30;1.30;;;;;;;26.19;43.86;100031.86;130108;1270;109088;-77
2022/07/13 13:24:50;;;;;;;1.40;1.20;;;;;;;26.21;43.95;100029.52;130040;1270;108665;-78
2022/07/13 13:27:55;;;;;;;2.90;1.60;;;;;;;26.25;43.89;100032.07;130149;1270;108268;-77
2022/07/13 13:31:00;;;;;;;2.50;1.20;;;;;;;26.34;43.94;100026.98;130144;1270;109099;-76
2022/07/13 13:34:06;;;;;;;3.30;1.40;;;;;;;26.43;43.96;100031.15;130233;1270;108859;-81
2022/07/13 13:37:11;;;;;;;3.20;1.50;;;;;;;26.39;42.93;100032.27;130102;1270;108748;-77
2022/07/13 13:40:16;;;;;;;5.70;1.90;;;;;;;26.27;42.53;100030.93;130001;1270;107685;-77
2022/07/13 13:43:22;;;;;;;1.90;1.20;;;;;;;26.19;43.21;100035.86;130219;1270;108688;-83
2022/07/13 13:46:28;;;;;;;2.00;1.20;;;;;;;26.26;44.02;100034.04;130209;1270;108695;-89
2022/07/13 13:49:33;;;;;;;1.50;1.30;;;;;;;26.31;44.24;100037.96;130264;1270;107778;-78
2022/07/13 13:52:38;;;;;;;1.80;1.40;;;;;;;26.27;43.18;100036.90;130155;1270;108599;-90
2022/07/13 13:55:44;;;;;;;1.60;1.40;;;;;;;26.21;43.13;100035.55;130244;1270;107712;-83
2022/07/13 13:58:50;;;;;;;2.90;1.50;;;;;;;26.20;43.53;100035.00;130089;1270;109050;-83
2022/07/13 14:01:55;;;;;;;3.60;1.70;;;;;;;26.11;43.45;100035.96;130281;1270;107671;-83
2022/07/13 14:05:01;;;;;;;2.40;1.60;;;;;;;26.05;43.31;100040.45;130230;1270;108614;-78
2022/07/13 14:08:07;;;;;;;1.80;1.70;;;;;;;26.11;43.82;100045.73;130282;1270;108845;-80
2022/07/13 14:11:13;;;;;;;5.40;1.60;;;;;;;26.21;43.79;100037.30;130364;1270;108865;-80
2022/07/13 14:14:18;;;;;;;3.00;1.50;;;;;;;26.24;43.80;100034.58;130318;1270;108547;-83
2022/07/13 14:17:24;;;;;;;2.10;1.40;;;;;;;26.29;43.88;100039.59;130351;1270;109218;-80
2022/07/13 14:20:29;;;;;;;3.50;1.50;;;;;;;26.28;43.96;100045.83;130098;1270;108700;-80
2022/07/13 14:23:35;;;;;;;3.40;1.50;;;;;;;26.24;44.21;100041.25;130190;1270;108694;-84
2022/07/13 14:26:40;;;;;;;5.80;1.40;;;;;;;26.27;44.47;100044.17;130265;1270;108724;-79
2022/07/13 14:29:45;;;;;;;1.50;1.40;;;;;;;26.27;44.10;100048.27;130350;1270;108765;-86
2022/07/13 14:32:51;;;;;;;2.70;1.20;;;;;;;26.15;43.77;100053.70;130335;1270;108666;-82
2022/07/13 14:35:56;;;;;;;3.20;1.30;;;;;;;26.02;43.96;100053.88;130114;1270;108795;-77